sensor_id;sensor_type;location;lat;lon;timestamp;temperature;humidity
46416;DHT22;32620;51.704;7.822;2022-08-01T00:02:04;19.20;99.90
46416;DHT22;32620;51.704;7.822;2022-08-01T00:04:29;19.20;99.90
46416;DHT22;32620;51.704;7.822;2022-08-01T00:06:55;19.20;99.90
46416;DHT22;32620;51.704;7.822;2022-08-01T00:09:20;19.20;99.90
46416;DHT22;32620;51.704;7.822;2022-08-01T00:11:46;19.20;99.90
46416;DHT22;32620;51.704;7.822;2022-08-01T00:14:11;19.20;99.90
46416;DHT22;32620;51.704;7.822;2022-08-01T00:16:37;19.20;99.90
46416;DHT22;32620;51.704;7.822;2022-08-01T00:19:03;19.20;99.90
46416;DHT22;32620;51.704;7.822;2022-08-01T00:21:28;19.20;99.90
46416;DHT22;32620;51.704;7.822;2022-08-01T00:23:54;19.20;99.90
46416;DHT22;32620;51.704;7.822;2022-08-01T00:26:19;19.20;99.90
46416;DHT22;32620;51.704;7.822;2022-08-01T00:28:45;19.20;99.90
46416;DHT22;32620;51.704;7.822;2022-08-01T00:31:11;19.20;99.90
46416;DHT22;32620;51.704;7.822;2022-08-01T00:33:36;19.20;99.90
46416;DHT22;32620;51.704;7.822;2022-08-01T00:36:02;19.20;99.90
46416;DHT22;32620;51.704;7.822;2022-08-01T00:38:27;19.20;99.90
46416;DHT22;32620;51.704;7.822;2022-08-01T00:40:53;19.20;99.90
46416;DHT22;32620;51.704;7.822;2022-08-01T00:43:18;19.20;99.90
46416;DHT22;32620;51.704;7.822;2022-08-01T00:45:44;19.20;99.90
46416;DHT22;32620;51.704;7.822;2022-08-01T00:48:09;19.20;99.90
46416;DHT22;32620;51.704;7.822;2022-08-01T00:50:35;19.20;99.90
46416;DHT22;32620;51.704;7.822;2022-08-01T00:53:01;19.20;99.90
46416;DHT22;32620;51.704;7.822;2022-08-01T00:55:27;19.20;99.90
46416;DHT22;32620;51.704;7.822;2022-08-01T00:57:52;19.20;99.90
46416;DHT22;32620;51.704;7.822;2022-08-01T01:00:18;19.10;99.90
46416;DHT22;32620;51.704;7.822;2022-08-01T01:02:44;19.20;99.90
46416;DHT22;32620;51.704;7.822;2022-08-01T01:05:09;19.10;99.90
46416;DHT22;32620;51.704;7.822;2022-08-01T01:07:38;19.10;99.90
46416;DHT22;32620;51.704;7.822;2022-08-01T01:10:09;19.10;99.90
46416;DHT22;32620;51.704;7.822;2022-08-01T01:12:41;19.00;99.90
46416;DHT22;32620;51.704;7.822;2022-08-01T01:15:09;19.00;99.90
46416;DHT22;32620;51.704;7.822;2022-08-01T01:20:21;19.00;99.90
46416;DHT22;32620;51.704;7.822;2022-08-01T01:25:39;19.00;99.90
46416;DHT22;32620;51.704;7.822;2022-08-01T01:28:10;19.00;99.90
46416;DHT22;32620;51.704;7.822;2022-08-01T01:30:38;19.00;99.90
46416;DHT22;32620;51.704;7.822;2022-08-01T01:33:06;19.00;99.90
46416;DHT22;32620;51.704;7.822;2022-08-01T01:35:32;19.00;99.90
46416;DHT22;32620;51.704;7.822;2022-08-01T01:38:00;19.10;99.90
46416;DHT22;32620;51.704;7.822;2022-08-01T01:40:26;19.10;99.90
46416;DHT22;32620;51.704;7.822;2022-08-01T01:42:52;19.10;99.90
46416;DHT22;32620;51.704;7.822;2022-08-01T01:45:19;19.00;99.90
46416;DHT22;32620;51.704;7.822;2022-08-01T01:47:45;19.00;99.90
46416;DHT22;32620;51.704;7.822;2022-08-01T01:50:11;19.10;99.90
46416;DHT22;32620;51.704;7.822;2022-08-01T01:52:38;19.10;99.90
46416;DHT22;32620;51.704;7.822;2022-08-01T01:55:05;19.10;99.90
46416;DHT22;32620;51.704;7.822;2022-08-01T01:57:32;19.10;99.90
46416;DHT22;32620;51.704;7.822;2022-08-01T01:59:58;19.10;99.90
46416;DHT22;32620;51.704;7.822;2022-08-01T02:02:24;19.00;99.90
46416;DHT22;32620;51.704;7.822;2022-08-01T02:04:50;19.00;99.90
46416;DHT22;32620;51.704;7.822;2022-08-01T02:07:20;19.00;99.90
46416;DHT22;32620;51.704;7.822;2022-08-01T02:09:46;18.80;99.90
46416;DHT22;32620;51.704;7.822;2022-08-01T02:12:12;18.80;99.90
46416;DHT22;32620;51.704;7.822;2022-08-01T02:14:38;18.80;99.90
46416;DHT22;32620;51.704;7.822;2022-08-01T02:17:05;18.80;99.90
46416;DHT22;32620;51.704;7.822;2022-08-01T02:19:32;18.80;99.90
46416;DHT22;32620;51.704;7.822;2022-08-01T02:22:00;18.70;99.90
46416;DHT22;32620;51.704;7.822;2022-08-01T02:24:29;18.60;99.90
46416;DHT22;32620;51.704;7.822;2022-08-01T02:26:57;18.60;99.90
46416;DHT22;32620;51.704;7.822;2022-08-01T02:29:27;18.60;99.90
46416;DHT22;32620;51.704;7.822;2022-08-01T02:31:54;18.60;99.90
46416;DHT22;32620;51.704;7.822;2022-08-01T02:34:20;18.60;99.90
46416;DHT22;32620;51.704;7.822;2022-08-01T02:36:46;18.50;99.90
46416;DHT22;32620;51.704;7.822;2022-08-01T02:39:13;18.50;99.90
46416;DHT22;32620;51.704;7.822;2022-08-01T02:41:41;18.50;99.90
46416;DHT22;32620;51.704;7.822;2022-08-01T02:44:08;18.50;99.90
46416;DHT22;32620;51.704;7.822;2022-08-01T02:46:43;18.40;99.90
46416;DHT22;32620;51.704;7.822;2022-08-01T02:49:10;18.40;99.90
46416;DHT22;32620;51.704;7.822;2022-08-01T02:51:36;18.40;99.90
46416;DHT22;32620;51.704;7.822;2022-08-01T02:54:02;18.50;99.90
46416;DHT22;32620;51.704;7.822;2022-08-01T02:56:29;18.40;99.90
46416;DHT22;32620;51.704;7.822;2022-08-01T02:59:01;18.40;99.90
46416;DHT22;32620;51.704;7.822;2022-08-01T03:01:27;18.40;99.90
46416;DHT22;32620;51.704;7.822;2022-08-01T03:03:53;18.40;99.90
46416;DHT22;32620;51.704;7.822;2022-08-01T03:06:18;18.40;99.90
46416;DHT22;32620;51.704;7.822;2022-08-01T03:08:44;18.40;99.90
46416;DHT22;32620;51.704;7.822;2022-08-01T03:11:11;18.40;99.90
46416;DHT22;32620;51.704;7.822;2022-08-01T03:13:37;18.40;99.90
46416;DHT22;32620;51.704;7.822;2022-08-01T03:16:03;18.40;99.90
46416;DHT22;32620;51.704;7.822;2022-08-01T03:18:29;18.40;99.90
46416;DHT22;32620;51.704;7.822;2022-08-01T03:20:55;18.30;99.90
46416;DHT22;32620;51.704;7.822;2022-08-01T03:23:21;18.30;99.90
46416;DHT22;32620;51.704;7.822;2022-08-01T03:25:47;18.40;99.90
46416;DHT22;32620;51.704;7.822;2022-08-01T03:28:14;18.30;99.90
46416;DHT22;32620;51.704;7.822;2022-08-01T03:30:41;18.30;99.90
46416;DHT22;32620;51.704;7.822;2022-08-01T03:33:07;18.30;99.90
46416;DHT22;32620;51.704;7.822;2022-08-01T03:35:33;18.30;99.90
46416;DHT22;32620;51.704;7.822;2022-08-01T03:37:59;18.30;99.90
46416;DHT22;32620;51.704;7.822;2022-08-01T03:40:41;18.30;99.90
46416;DHT22;32620;51.704;7.822;2022-08-01T03:43:11;18.30;99.90
46416;DHT22;32620;51.704;7.822;2022-08-01T03:45:38;18.30;99.90
46416;DHT22;32620;51.704;7.822;2022-08-01T03:48:06;18.30;99.90
46416;DHT22;32620;51.704;7.822;2022-08-01T03:50:33;18.20;99.90
46416;DHT22;32620;51.704;7.822;2022-08-01T03:53:01;18.30;99.90
46416;DHT22;32620;51.704;7.822;2022-08-01T03:55:28;18.30;99.90
46416;DHT22;32620;51.704;7.822;2022-08-01T03:57:53;18.30;99.90
46416;DHT22;32620;51.704;7.822;2022-08-01T04:00:19;18.30;99.90
46416;DHT22;32620;51.704;7.822;2022-08-01T04:02:46;18.30;99.90
46416;DHT22;32620;51.704;7.822;2022-08-01T04:05:11;18.30;99.90
46416;DHT22;32620;51.704;7.822;2022-08-01T04:07:37;18.30;99.90
46416;DHT22;32620;51.704;7.822;2022-08-01T04:10:04;18.30;99.90
46416;DHT22;32620;51.704;7.822;2022-08-01T04:12:30;18.30;99.90
46416;DHT22;32620;51.704;7.822;2022-08-01T04:14:55;18.30;99.90
46416;DHT22;32620;51.704;7.822;2022-08-01T04:17:21;18.30;99.90
46416;DHT22;32620;51.704;7.822;2022-08-01T04:19:46;18.20;99.90
46416;DHT22;32620;51.704;7.822;2022-08-01T04:22:13;18.30;99.90
46416;DHT22;32620;51.704;7.822;2022-08-01T04:24:38;18.30;99.90
46416;DHT22;32620;51.704;7.822;2022-08-01T04:27:05;18.30;99.90
46416;DHT22;32620;51.704;7.822;2022-08-01T04:29:31;18.30;99.90
46416;DHT22;32620;51.704;7.822;2022-08-01T04:31:57;18.30;99.90
46416;DHT22;32620;51.704;7.822;2022-08-01T04:34:25;18.40;99.90
46416;DHT22;32620;51.704;7.822;2022-08-01T04:36:54;18.30;99.90
46416;DHT22;32620;51.704;7.822;2022-08-01T04:39:20;18.30;99.90
46416;DHT22;32620;51.704;7.822;2022-08-01T04:41:47;18.30;99.90
46416;DHT22;32620;51.704;7.822;2022-08-01T04:44:13;18.30;99.90
46416;DHT22;32620;51.704;7.822;2022-08-01T04:46:39;18.30;99.90
46416;DHT22;32620;51.704;7.822;2022-08-01T04:49:08;18.40;99.90
46416;DHT22;32620;51.704;7.822;2022-08-01T04:51:34;18.40;99.90
46416;DHT22;32620;51.704;7.822;2022-08-01T04:54:00;18.40;99.90
46416;DHT22;32620;51.704;7.822;2022-08-01T04:56:26;18.40;99.90
46416;DHT22;32620;51.704;7.822;2022-08-01T04:58:51;18.40;99.90
46416;DHT22;32620;51.704;7.822;2022-08-01T05:01:37;18.30;99.90
46416;DHT22;32620;51.704;7.822;2022-08-01T05:04:02;18.40;99.90
46416;DHT22;32620;51.704;7.822;2022-08-01T05:06:28;18.40;99.90
46416;DHT22;32620;51.704;7.822;2022-08-01T05:08:53;18.40;99.90
46416;DHT22;32620;51.704;7.822;2022-08-01T05:11:19;18.40;99.90
46416;DHT22;32620;51.704;7.822;2022-08-01T05:13:47;18.40;99.90
46416;DHT22;32620;51.704;7.822;2022-08-01T05:16:13;18.40;99.90
46416;DHT22;32620;51.704;7.822;2022-08-01T05:18:38;18.50;99.90
46416;DHT22;32620;51.704;7.822;2022-08-01T05:21:04;18.40;99.90
46416;DHT22;32620;51.704;7.822;2022-08-01T05:23:29;18.50;99.90
46416;DHT22;32620;51.704;7.822;2022-08-01T05:25:54;18.60;99.90
46416;DHT22;32620;51.704;7.822;2022-08-01T05:28:20;18.60;99.90
46416;DHT22;32620;51.704;7.822;2022-08-01T05:30:45;18.60;99.90
46416;DHT22;32620;51.704;7.822;2022-08-01T05:33:11;18.70;99.90
46416;DHT22;32620;51.704;7.822;2022-08-01T05:35:36;18.70;99.90
46416;DHT22;32620;51.704;7.822;2022-08-01T05:38:02;18.70;99.90
46416;DHT22;32620;51.704;7.822;2022-08-01T05:40:27;18.80;99.90
46416;DHT22;32620;51.704;7.822;2022-08-01T05:42:53;18.80;99.90
46416;DHT22;32620;51.704;7.822;2022-08-01T05:45:18;18.90;99.90
46416;DHT22;32620;51.704;7.822;2022-08-01T05:47:44;18.90;99.90
46416;DHT22;32620;51.704;7.822;2022-08-01T05:50:09;19.00;99.90
46416;DHT22;32620;51.704;7.822;2022-08-01T05:52:35;19.10;99.90
46416;DHT22;32620;51.704;7.822;2022-08-01T05:55:00;19.10;99.90
46416;DHT22;32620;51.704;7.822;2022-08-01T05:57:26;19.10;99.90
46416;DHT22;32620;51.704;7.822;2022-08-01T05:59:51;19.20;99.90
46416;DHT22;32620;51.704;7.822;2022-08-01T06:02:17;19.30;99.90
46416;DHT22;32620;51.704;7.822;2022-08-01T06:04:42;19.50;99.90
46416;DHT22;32620;51.704;7.822;2022-08-01T06:07:08;19.70;99.90
46416;DHT22;32620;51.704;7.822;2022-08-01T06:09:33;19.80;99.90
46416;DHT22;32620;51.704;7.822;2022-08-01T06:11:59;19.70;99.90
46416;DHT22;32620;51.704;7.822;2022-08-01T06:14:24;19.70;99.90
46416;DHT22;32620;51.704;7.822;2022-08-01T06:16:50;19.70;99.90
46416;DHT22;32620;51.704;7.822;2022-08-01T06:19:15;19.60;99.90
46416;DHT22;32620;51.704;7.822;2022-08-01T06:21:41;19.70;99.90
46416;DHT22;32620;51.704;7.822;2022-08-01T06:24:06;19.80;99.90
46416;DHT22;32620;51.704;7.822;2022-08-01T06:26:32;19.60;99.90
46416;DHT22;32620;51.704;7.822;2022-08-01T06:28:57;19.80;99.90
46416;DHT22;32620;51.704;7.822;2022-08-01T06:31:23;19.90;99.90
46416;DHT22;32620;51.704;7.822;2022-08-01T06:33:48;20.10;99.90
46416;DHT22;32620;51.704;7.822;2022-08-01T06:36:14;20.20;99.90
46416;DHT22;32620;51.704;7.822;2022-08-01T06:38:39;20.30;99.90
46416;DHT22;32620;51.704;7.822;2022-08-01T06:41:05;20.40;99.90
46416;DHT22;32620;51.704;7.822;2022-08-01T06:43:30;20.50;99.90
46416;DHT22;32620;51.704;7.822;2022-08-01T06:45:56;20.60;99.90
46416;DHT22;32620;51.704;7.822;2022-08-01T06:48:22;20.50;99.90
46416;DHT22;32620;51.704;7.822;2022-08-01T06:50:48;20.30;99.90
46416;DHT22;32620;51.704;7.822;2022-08-01T06:53:13;20.40;99.90
46416;DHT22;32620;51.704;7.822;2022-08-01T06:55:39;20.20;99.90
46416;DHT22;32620;51.704;7.822;2022-08-01T06:58:04;20.30;99.90
46416;DHT22;32620;51.704;7.822;2022-08-01T07:00:30;20.50;99.90
46416;DHT22;32620;51.704;7.822;2022-08-01T07:02:56;20.70;99.90
46416;DHT22;32620;51.704;7.822;2022-08-01T07:05:22;20.80;99.90
46416;DHT22;32620;51.704;7.822;2022-08-01T07:07:48;20.80;99.90
46416;DHT22;32620;51.704;7.822;2022-08-01T07:10:14;20.70;99.90
46416;DHT22;32620;51.704;7.822;2022-08-01T07:12:39;20.60;99.90
46416;DHT22;32620;51.704;7.822;2022-08-01T07:15:06;20.60;99.90
46416;DHT22;32620;51.704;7.822;2022-08-01T07:17:32;20.80;99.90
46416;DHT22;32620;51.704;7.822;2022-08-01T07:20:01;20.70;99.90
46416;DHT22;32620;51.704;7.822;2022-08-01T07:22:26;20.70;99.90
46416;DHT22;32620;51.704;7.822;2022-08-01T07:24:52;20.80;99.90
46416;DHT22;32620;51.704;7.822;2022-08-01T07:27:17;21.00;99.90
46416;DHT22;32620;51.704;7.822;2022-08-01T07:29:43;21.00;99.90
46416;DHT22;32620;51.704;7.822;2022-08-01T07:32:08;21.00;99.90
46416;DHT22;32620;51.704;7.822;2022-08-01T07:34:34;20.90;99.90
46416;DHT22;32620;51.704;7.822;2022-08-01T07:36:59;21.60;99.90
46416;DHT22;32620;51.704;7.822;2022-08-01T07:39:25;21.60;99.90
46416;DHT22;32620;51.704;7.822;2022-08-01T07:41:50;21.70;99.90
46416;DHT22;32620;51.704;7.822;2022-08-01T07:44:16;22.00;99.90
46416;DHT22;32620;51.704;7.822;2022-08-01T07:46:41;22.50;99.90
46416;DHT22;32620;51.704;7.822;2022-08-01T07:49:07;22.60;99.90
46416;DHT22;32620;51.704;7.822;2022-08-01T07:51:33;22.60;99.90
46416;DHT22;32620;51.704;7.822;2022-08-01T07:53:58;23.10;99.90
46416;DHT22;32620;51.704;7.822;2022-08-01T07:56:23;23.00;99.90
46416;DHT22;32620;51.704;7.822;2022-08-01T07:58:50;22.40;99.90
46416;DHT22;32620;51.704;7.822;2022-08-01T08:01:16;22.20;99.90
46416;DHT22;32620;51.704;7.822;2022-08-01T08:03:41;22.30;99.90
46416;DHT22;32620;51.704;7.822;2022-08-01T08:06:07;22.50;99.90
46416;DHT22;32620;51.704;7.822;2022-08-01T08:08:32;23.00;99.90
46416;DHT22;32620;51.704;7.822;2022-08-01T08:11:00;23.30;99.90
46416;DHT22;32620;51.704;7.822;2022-08-01T08:13:25;23.00;99.90
46416;DHT22;32620;51.704;7.822;2022-08-01T08:15:51;22.80;99.90
46416;DHT22;32620;51.704;7.822;2022-08-01T08:18:16;23.00;99.90
46416;DHT22;32620;51.704;7.822;2022-08-01T08:20:42;23.10;99.90
46416;DHT22;32620;51.704;7.822;2022-08-01T08:23:07;22.50;99.90
46416;DHT22;32620;51.704;7.822;2022-08-01T08:25:53;21.80;99.90
46416;DHT22;32620;51.704;7.822;2022-08-01T08:28:18;21.00;99.90
46416;DHT22;32620;51.704;7.822;2022-08-01T08:30:44;20.70;99.90
46416;DHT22;32620;51.704;7.822;2022-08-01T08:33:09;20.60;99.90
46416;DHT22;32620;51.704;7.822;2022-08-01T08:35:35;20.60;99.90
46416;DHT22;32620;51.704;7.822;2022-08-01T08:38:00;20.50;99.90
46416;DHT22;32620;51.704;7.822;2022-08-01T08:40:28;20.60;99.90
46416;DHT22;32620;51.704;7.822;2022-08-01T08:42:54;20.70;99.90
46416;DHT22;32620;51.704;7.822;2022-08-01T08:45:20;20.90;99.90
46416;DHT22;32620;51.704;7.822;2022-08-01T08:47:46;21.20;99.90
46416;DHT22;32620;51.704;7.822;2022-08-01T08:50:13;21.50;99.90
46416;DHT22;32620;51.704;7.822;2022-08-01T08:52:39;21.80;99.90
46416;DHT22;32620;51.704;7.822;2022-08-01T08:55:05;22.10;99.90
46416;DHT22;32620;51.704;7.822;2022-08-01T08:57:30;22.20;99.90
46416;DHT22;32620;51.704;7.822;2022-08-01T08:59:56;22.30;99.90
46416;DHT22;32620;51.704;7.822;2022-08-01T09:02:23;22.40;99.90
46416;DHT22;32620;51.704;7.822;2022-08-01T09:04:49;22.40;99.90
46416;DHT22;32620;51.704;7.822;2022-08-01T09:07:15;22.20;99.90
46416;DHT22;32620;51.704;7.822;2022-08-01T09:09:40;22.40;99.90
46416;DHT22;32620;51.704;7.822;2022-08-01T09:12:06;22.20;99.90
46416;DHT22;32620;51.704;7.822;2022-08-01T09:14:31;22.10;99.90
46416;DHT22;32620;51.704;7.822;2022-08-01T09:16:59;22.40;99.90
46416;DHT22;32620;51.704;7.822;2022-08-01T09:19:26;22.90;99.90
46416;DHT22;32620;51.704;7.822;2022-08-01T09:21:59;22.80;99.90
46416;DHT22;32620;51.704;7.822;2022-08-01T09:24:26;22.80;99.90
46416;DHT22;32620;51.704;7.822;2022-08-01T09:26:52;23.10;99.90
46416;DHT22;32620;51.704;7.822;2022-08-01T09:29:20;23.20;99.90
46416;DHT22;32620;51.704;7.822;2022-08-01T09:31:46;23.50;99.90
46416;DHT22;32620;51.704;7.822;2022-08-01T09:34:12;24.30;99.90
46416;DHT22;32620;51.704;7.822;2022-08-01T09:36:45;24.60;99.90
46416;DHT22;32620;51.704;7.822;2022-08-01T09:39:13;24.80;99.90
46416;DHT22;32620;51.704;7.822;2022-08-01T09:41:39;24.30;99.90
46416;DHT22;32620;51.704;7.822;2022-08-01T09:44:05;24.10;99.90
46416;DHT22;32620;51.704;7.822;2022-08-01T09:46:31;23.70;99.90
46416;DHT22;32620;51.704;7.822;2022-08-01T09:48:57;23.90;99.90
46416;DHT22;32620;51.704;7.822;2022-08-01T09:51:38;24.10;99.90
46416;DHT22;32620;51.704;7.822;2022-08-01T09:54:05;24.10;99.90
46416;DHT22;32620;51.704;7.822;2022-08-01T09:56:38;23.90;99.90
46416;DHT22;32620;51.704;7.822;2022-08-01T09:59:05;23.90;99.90
46416;DHT22;32620;51.704;7.822;2022-08-01T10:01:47;23.60;99.90
46416;DHT22;32620;51.704;7.822;2022-08-01T10:04:13;23.30;99.90
46416;DHT22;32620;51.704;7.822;2022-08-01T10:06:40;22.80;99.90
46416;DHT22;32620;51.704;7.822;2022-08-01T10:09:08;23.00;99.90
46416;DHT22;32620;51.704;7.822;2022-08-01T10:11:33;23.00;99.90
46416;DHT22;32620;51.704;7.822;2022-08-01T10:14:02;23.40;99.90
46416;DHT22;32620;51.704;7.822;2022-08-01T10:16:27;24.30;99.90
46416;DHT22;32620;51.704;7.822;2022-08-01T10:18:53;24.70;99.90
46416;DHT22;32620;51.704;7.822;2022-08-01T10:21:19;24.90;99.90
46416;DHT22;32620;51.704;7.822;2022-08-01T10:23:45;25.30;99.90
46416;DHT22;32620;51.704;7.822;2022-08-01T10:26:11;25.90;99.90
46416;DHT22;32620;51.704;7.822;2022-08-01T10:28:37;27.60;99.90
46416;DHT22;32620;51.704;7.822;2022-08-01T10:31:03;27.80;99.90
46416;DHT22;32620;51.704;7.822;2022-08-01T10:33:29;27.60;99.90
46416;DHT22;32620;51.704;7.822;2022-08-01T10:35:54;27.40;99.90
46416;DHT22;32620;51.704;7.822;2022-08-01T10:38:20;26.40;99.90
46416;DHT22;32620;51.704;7.822;2022-08-01T10:40:45;25.70;99.90
46416;DHT22;32620;51.704;7.822;2022-08-01T10:43:11;25.60;99.90
46416;DHT22;32620;51.704;7.822;2022-08-01T10:45:37;25.40;99.90
46416;DHT22;32620;51.704;7.822;2022-08-01T10:48:09;25.40;99.90
46416;DHT22;32620;51.704;7.822;2022-08-01T10:50:38;25.80;99.90
46416;DHT22;32620;51.704;7.822;2022-08-01T10:53:07;25.30;99.90
46416;DHT22;32620;51.704;7.822;2022-08-01T10:55:44;24.40;99.90
46416;DHT22;32620;51.704;7.822;2022-08-01T10:58:10;25.20;99.90
46416;DHT22;32620;51.704;7.822;2022-08-01T11:00:42;25.60;99.90
46416;DHT22;32620;51.704;7.822;2022-08-01T11:03:08;25.70;99.90
46416;DHT22;32620;51.704;7.822;2022-08-01T11:05:34;25.90;99.90
46416;DHT22;32620;51.704;7.822;2022-08-01T11:08:01;25.00;99.90
46416;DHT22;32620;51.704;7.822;2022-08-01T11:10:36;25.50;99.90
46416;DHT22;32620;51.704;7.822;2022-08-01T11:13:02;25.30;99.90
46416;DHT22;32620;51.704;7.822;2022-08-01T11:15:30;25.30;99.90
46416;DHT22;32620;51.704;7.822;2022-08-01T11:17:57;25.50;99.90
46416;DHT22;32620;51.704;7.822;2022-08-01T11:20:23;25.40;99.90
46416;DHT22;32620;51.704;7.822;2022-08-01T11:28:21;24.10;99.90
46416;DHT22;32620;51.704;7.822;2022-08-01T11:30:54;24.00;99.90
46416;DHT22;32620;51.704;7.822;2022-08-01T11:36:18;24.70;99.90
46416;DHT22;32620;51.704;7.822;2022-08-01T11:38:47;24.90;99.90
46416;DHT22;32620;51.704;7.822;2022-08-01T11:41:14;25.40;99.90
46416;DHT22;32620;51.704;7.822;2022-08-01T11:44:13;25.00;99.90
46416;DHT22;32620;51.704;7.822;2022-08-01T11:52:36;24.70;99.90
46416;DHT22;32620;51.704;7.822;2022-08-01T11:54:52;24.10;99.90
46416;DHT22;32620;51.704;7.822;2022-08-01T11:57:19;24.10;99.90
46416;DHT22;32620;51.704;7.822;2022-08-01T11:59:46;23.80;99.90
46416;DHT22;32620;51.704;7.822;2022-08-01T12:02:15;24.10;99.90
46416;DHT22;32620;51.704;7.822;2022-08-01T12:04:44;24.40;99.90
46416;DHT22;32620;51.704;7.822;2022-08-01T12:07:11;24.10;99.90
46416;DHT22;32620;51.704;7.822;2022-08-01T12:09:37;23.90;99.90
46416;DHT22;32620;51.704;7.822;2022-08-01T12:12:02;23.90;99.90
46416;DHT22;32620;51.704;7.822;2022-08-01T12:14:28;24.20;99.90
46416;DHT22;32620;51.704;7.822;2022-08-01T12:16:54;24.70;99.90
46416;DHT22;32620;51.704;7.822;2022-08-01T12:19:23;24.90;99.90
46416;DHT22;32620;51.704;7.822;2022-08-01T12:22:21;24.60;99.90
46416;DHT22;32620;51.704;7.822;2022-08-01T12:24:34;23.90;99.90
46416;DHT22;32620;51.704;7.822;2022-08-01T12:27:00;24.30;99.90
46416;DHT22;32620;51.704;7.822;2022-08-01T12:29:33;24.10;99.90
46416;DHT22;32620;51.704;7.822;2022-08-01T12:31:58;23.90;99.90
46416;DHT22;32620;51.704;7.822;2022-08-01T12:34:25;24.40;99.90
46416;DHT22;32620;51.704;7.822;2022-08-01T12:36:51;24.40;99.90
46416;DHT22;32620;51.704;7.822;2022-08-01T12:39:16;24.20;99.90
46416;DHT22;32620;51.704;7.822;2022-08-01T12:41:43;23.80;99.90
46416;DHT22;32620;51.704;7.822;2022-08-01T12:44:13;24.00;99.90
46416;DHT22;32620;51.704;7.822;2022-08-01T12:46:40;24.40;99.90
46416;DHT22;32620;51.704;7.822;2022-08-01T12:49:05;24.80;99.90
46416;DHT22;32620;51.704;7.822;2022-08-01T12:51:31;25.10;99.90
46416;DHT22;32620;51.704;7.822;2022-08-01T12:53:58;25.40;99.90
46416;DHT22;32620;51.704;7.822;2022-08-01T12:56:30;25.40;99.90
46416;DHT22;32620;51.704;7.822;2022-08-01T12:58:56;25.00;99.90
46416;DHT22;32620;51.704;7.822;2022-08-01T13:01:25;24.70;99.90
46416;DHT22;32620;51.704;7.822;2022-08-01T13:04:06;24.40;99.90
46416;DHT22;32620;51.704;7.822;2022-08-01T13:06:31;24.70;99.90
46416;DHT22;32620;51.704;7.822;2022-08-01T13:09:05;24.70;99.90
46416;DHT22;32620;51.704;7.822;2022-08-01T13:11:30;24.40;99.90
46416;DHT22;32620;51.704;7.822;2022-08-01T13:13:56;24.10;99.90
46416;DHT22;32620;51.704;7.822;2022-08-01T13:16:23;23.80;99.90
46416;DHT22;32620;51.704;7.822;2022-08-01T13:18:49;23.50;99.90
46416;DHT22;32620;51.704;7.822;2022-08-01T13:21:16;23.40;99.90
46416;DHT22;32620;51.704;7.822;2022-08-01T13:23:59;23.70;99.90
46416;DHT22;32620;51.704;7.822;2022-08-01T13:26:42;24.00;99.90
46416;DHT22;32620;51.704;7.822;2022-08-01T13:29:09;24.10;99.90
46416;DHT22;32620;51.704;7.822;2022-08-01T13:31:36;24.60;99.90
46416;DHT22;32620;51.704;7.822;2022-08-01T13:34:05;24.70;99.90
46416;DHT22;32620;51.704;7.822;2022-08-01T13:36:31;24.90;99.90
46416;DHT22;32620;51.704;7.822;2022-08-01T13:38:57;25.00;99.90
46416;DHT22;32620;51.704;7.822;2022-08-01T13:41:43;25.20;99.90
46416;DHT22;32620;51.704;7.822;2022-08-01T13:44:09;24.90;99.90
46416;DHT22;32620;51.704;7.822;2022-08-01T13:46:37;24.20;99.90
46416;DHT22;32620;51.704;7.822;2022-08-01T13:49:04;24.20;99.90
46416;DHT22;32620;51.704;7.822;2022-08-01T13:51:29;24.30;99.90
46416;DHT22;32620;51.704;7.822;2022-08-01T13:53:55;24.30;99.90
46416;DHT22;32620;51.704;7.822;2022-08-01T13:56:20;24.50;99.90
46416;DHT22;32620;51.704;7.822;2022-08-01T13:58:46;24.50;99.90
46416;DHT22;32620;51.704;7.822;2022-08-01T14:01:11;24.90;99.90
46416;DHT22;32620;51.704;7.822;2022-08-01T14:03:37;24.80;99.90
46416;DHT22;32620;51.704;7.822;2022-08-01T14:06:03;24.40;99.90
46416;DHT22;32620;51.704;7.822;2022-08-01T14:08:28;24.50;99.90
46416;DHT22;32620;51.704;7.822;2022-08-01T14:10:53;24.40;99.90
46416;DHT22;32620;51.704;7.822;2022-08-01T14:13:22;24.80;99.90
46416;DHT22;32620;51.704;7.822;2022-08-01T14:15:48;25.00;99.90
46416;DHT22;32620;51.704;7.822;2022-08-01T14:18:15;24.90;99.90
46416;DHT22;32620;51.704;7.822;2022-08-01T14:20:40;24.80;99.90
46416;DHT22;32620;51.704;7.822;2022-08-01T14:23:06;24.40;99.90
46416;DHT22;32620;51.704;7.822;2022-08-01T14:25:31;24.70;99.90
46416;DHT22;32620;51.704;7.822;2022-08-01T14:27:57;24.20;99.90
46416;DHT22;32620;51.704;7.822;2022-08-01T14:30:22;24.40;99.90
46416;DHT22;32620;51.704;7.822;2022-08-01T14:32:48;24.10;99.90
46416;DHT22;32620;51.704;7.822;2022-08-01T14:35:13;24.20;99.90
46416;DHT22;32620;51.704;7.822;2022-08-01T14:37:39;24.20;99.90
46416;DHT22;32620;51.704;7.822;2022-08-01T14:40:05;24.00;99.90
46416;DHT22;32620;51.704;7.822;2022-08-01T14:42:34;24.20;99.90
46416;DHT22;32620;51.704;7.822;2022-08-01T14:45:00;24.40;99.90
46416;DHT22;32620;51.704;7.822;2022-08-01T14:47:25;23.70;99.90
46416;DHT22;32620;51.704;7.822;2022-08-01T14:49:51;23.90;99.90
46416;DHT22;32620;51.704;7.822;2022-08-01T14:52:16;24.00;99.90
46416;DHT22;32620;51.704;7.822;2022-08-01T14:54:42;24.10;99.90
46416;DHT22;32620;51.704;7.822;2022-08-01T14:57:08;24.50;99.90
46416;DHT22;32620;51.704;7.822;2022-08-01T14:59:33;24.50;99.90
46416;DHT22;32620;51.704;7.822;2022-08-01T15:02:00;25.00;99.90
46416;DHT22;32620;51.704;7.822;2022-08-01T15:04:25;24.70;99.90
46416;DHT22;32620;51.704;7.822;2022-08-01T15:06:51;24.90;99.90
46416;DHT22;32620;51.704;7.822;2022-08-01T15:09:16;25.00;99.90
46416;DHT22;32620;51.704;7.822;2022-08-01T15:11:42;25.20;99.90
46416;DHT22;32620;51.704;7.822;2022-08-01T15:14:07;25.50;99.90
46416;DHT22;32620;51.704;7.822;2022-08-01T15:16:52;25.00;99.90
46416;DHT22;32620;51.704;7.822;2022-08-01T15:19:18;24.70;99.90
46416;DHT22;32620;51.704;7.822;2022-08-01T15:21:43;25.00;99.90
46416;DHT22;32620;51.704;7.822;2022-08-01T15:24:09;24.70;99.90
46416;DHT22;32620;51.704;7.822;2022-08-01T15:26:34;24.40;99.90
46416;DHT22;32620;51.704;7.822;2022-08-01T15:29:00;24.10;99.90
46416;DHT22;32620;51.704;7.822;2022-08-01T15:31:26;23.50;99.90
46416;DHT22;32620;51.704;7.822;2022-08-01T15:33:51;23.60;99.90
46416;DHT22;32620;51.704;7.822;2022-08-01T15:36:17;23.80;99.90
46416;DHT22;32620;51.704;7.822;2022-08-01T15:38:42;24.30;99.90
46416;DHT22;32620;51.704;7.822;2022-08-01T15:41:08;24.30;99.90
46416;DHT22;32620;51.704;7.822;2022-08-01T15:43:33;24.70;99.90
46416;DHT22;32620;51.704;7.822;2022-08-01T15:45:59;24.70;99.90
46416;DHT22;32620;51.704;7.822;2022-08-01T15:48:25;24.70;99.90